sensor_id;sensor_type;location;lat;lon;timestamp;P1;durP1;ratioP1;P2;durP2;ratioP2
15383;SDS011;7790;53.022;12.968;2022-09-09T00:01:50;2.07;;;1.90;;
15383;SDS011;7790;53.022;12.968;2022-09-09T00:06:45;1.83;;;1.73;;
15383;SDS011;7790;53.022;12.968;2022-09-09T00:10:43;2.23;;;2.03;;
15383;SDS011;7790;53.022;12.968;2022-09-09T00:15:04;2.00;;;1.90;;
15383;SDS011;7790;53.022;12.968;2022-09-09T00:23:45;2.03;;;1.80;;
15383;SDS011;7790;53.022;12.968;2022-09-09T00:27:54;2.03;;;1.93;;
15383;SDS011;7790;53.022;12.968;2022-09-09T00:32:00;2.17;;;2.00;;
15383;SDS011;7790;53.022;12.968;2022-09-09T00:36:15;1.83;;;1.73;;
15383;SDS011;7790;53.022;12.968;2022-09-09T00:44:33;2.10;;;2.00;;
15383;SDS011;7790;53.022;12.968;2022-09-09T00:53:11;2.60;;;2.40;;
15383;SDS011;7790;53.022;12.968;2022-09-09T00:57:31;2.30;;;2.20;;
15383;SDS011;7790;53.022;12.968;2022-09-09T01:01:33;2.60;;;2.37;;
15383;SDS011;7790;53.022;12.968;2022-09-09T01:05:39;2.17;;;2.03;;
15383;SDS011;7790;53.022;12.968;2022-09-09T01:10:03;2.40;;;2.20;;
15383;SDS011;7790;53.022;12.968;2022-09-09T01:18:36;2.67;;;2.47;;
15383;SDS011;7790;53.022;12.968;2022-09-09T01:27:02;2.90;;;2.70;;
15383;SDS011;7790;53.022;12.968;2022-09-09T01:31:06;2.57;;;2.47;;
15383;SDS011;7790;53.022;12.968;2022-09-09T01:35:27;3.23;;;2.90;;
15383;SDS011;7790;53.022;12.968;2022-09-09T01:39:38;2.77;;;2.57;;
15383;SDS011;7790;53.022;12.968;2022-09-09T01:43:44;3.27;;;2.97;;
15383;SDS011;7790;53.022;12.968;2022-09-09T01:47:47;3.20;;;2.90;;
15383;SDS011;7790;53.022;12.968;2022-09-09T01:51:54;3.20;;;2.90;;
15383;SDS011;7790;53.022;12.968;2022-09-09T01:56:21;2.80;;;2.60;;
15383;SDS011;7790;53.022;12.968;2022-09-09T02:00:37;3.07;;;2.73;;
15383;SDS011;7790;53.022;12.968;2022-09-09T02:04:45;3.27;;;2.60;;
15383;SDS011;7790;53.022;12.968;2022-09-09T02:08:57;3.20;;;2.90;;
15383;SDS011;7790;53.022;12.968;2022-09-09T02:13:04;2.77;;;2.57;;
15383;SDS011;7790;53.022;12.968;2022-09-09T02:17:23;2.93;;;2.73;;
15383;SDS011;7790;53.022;12.968;2022-09-09T02:21:37;3.07;;;2.87;;
15383;SDS011;7790;53.022;12.968;2022-09-09T02:25:40;3.10;;;2.90;;
15383;SDS011;7790;53.022;12.968;2022-09-09T02:29:53;2.87;;;2.67;;
15383;SDS011;7790;53.022;12.968;2022-09-09T02:34:15;2.90;;;2.63;;
15383;SDS011;7790;53.022;12.968;2022-09-09T02:38:20;3.43;;;3.13;;
15383;SDS011;7790;53.022;12.968;2022-09-09T02:42:31;3.03;;;2.83;;
15383;SDS011;7790;53.022;12.968;2022-09-09T02:51:08;3.30;;;3.00;;
15383;SDS011;7790;53.022;12.968;2022-09-09T02:55:17;3.43;;;3.13;;
15383;SDS011;7790;53.022;12.968;2022-09-09T02:59:29;8.40;;;3.83;;
15383;SDS011;7790;53.022;12.968;2022-09-09T03:03:31;4.33;;;3.83;;
15383;SDS011;7790;53.022;12.968;2022-09-09T03:07:35;5.67;;;3.90;;
15383;SDS011;7790;53.022;12.968;2022-09-09T03:11:36;11.00;;;4.10;;
15383;SDS011;7790;53.022;12.968;2022-09-09T03:15:39;9.27;;;4.07;;
15383;SDS011;7790;53.022;12.968;2022-09-09T03:19:43;9.33;;;4.60;;
15383;SDS011;7790;53.022;12.968;2022-09-09T03:23:44;8.80;;;4.50;;
15383;SDS011;7790;53.022;12.968;2022-09-09T03:27:45;8.83;;;4.70;;
15383;SDS011;7790;53.022;12.968;2022-09-09T03:31:47;6.37;;;4.47;;
15383;SDS011;7790;53.022;12.968;2022-09-09T03:35:48;7.30;;;4.93;;
15383;SDS011;7790;53.022;12.968;2022-09-09T03:39:51;5.87;;;4.77;;
15383;SDS011;7790;53.022;12.968;2022-09-09T03:43:53;7.77;;;4.70;;
15383;SDS011;7790;53.022;12.968;2022-09-09T03:47:56;5.23;;;4.60;;
15383;SDS011;7790;53.022;12.968;2022-09-09T03:51:58;4.40;;;3.97;;
15383;SDS011;7790;53.022;12.968;2022-09-09T03:55:59;6.20;;;4.50;;
15383;SDS011;7790;53.022;12.968;2022-09-09T04:00:03;5.03;;;4.37;;
15383;SDS011;7790;53.022;12.968;2022-09-09T04:04:06;5.03;;;4.17;;
15383;SDS011;7790;53.022;12.968;2022-09-09T04:08:08;5.30;;;4.80;;
15383;SDS011;7790;53.022;12.968;2022-09-09T04:12:09;5.47;;;4.50;;
15383;SDS011;7790;53.022;12.968;2022-09-09T04:16:14;5.30;;;4.80;;
15383;SDS011;7790;53.022;12.968;2022-09-09T04:20:16;4.43;;;4.00;;
15383;SDS011;7790;53.022;12.968;2022-09-09T04:24:17;4.37;;;3.97;;
15383;SDS011;7790;53.022;12.968;2022-09-09T04:28:20;4.83;;;4.37;;
15383;SDS011;7790;53.022;12.968;2022-09-09T04:32:23;4.60;;;4.20;;
15383;SDS011;7790;53.022;12.968;2022-09-09T04:36:27;3.90;;;3.60;;
15383;SDS011;7790;53.022;12.968;2022-09-09T04:40:32;4.80;;;4.40;;
15383;SDS011;7790;53.022;12.968;2022-09-09T04:44:34;4.63;;;3.90;;
15383;SDS011;7790;53.022;12.968;2022-09-09T04:48:36;4.37;;;3.83;;
15383;SDS011;7790;53.022;12.968;2022-09-09T04:52:39;5.17;;;4.13;;
15383;SDS011;7790;53.022;12.968;2022-09-09T04:56:40;4.17;;;3.80;;
15383;SDS011;7790;53.022;12.968;2022-09-09T05:00:42;4.23;;;3.83;;
15383;SDS011;7790;53.022;12.968;2022-09-09T05:04:44;3.83;;;3.53;;
15383;SDS011;7790;53.022;12.968;2022-09-09T05:08:47;4.17;;;3.83;;
15383;SDS011;7790;53.022;12.968;2022-09-09T05:12:52;3.80;;;3.50;;
15383;SDS011;7790;53.022;12.968;2022-09-09T05:16:55;4.37;;;3.90;;
15383;SDS011;7790;53.022;12.968;2022-09-09T05:21:00;4.17;;;3.50;;
15383;SDS011;7790;53.022;12.968;2022-09-09T05:25:02;3.87;;;3.57;;
15383;SDS011;7790;53.022;12.968;2022-09-09T05:29:04;4.40;;;3.77;;
15383;SDS011;7790;53.022;12.968;2022-09-09T05:33:06;4.23;;;3.83;;
15383;SDS011;7790;53.022;12.968;2022-09-09T05:37:09;3.63;;;3.33;;
15383;SDS011;7790;53.022;12.968;2022-09-09T05:41:11;3.80;;;3.50;;
15383;SDS011;7790;53.022;12.968;2022-09-09T05:45:15;4.00;;;3.47;;
15383;SDS011;7790;53.022;12.968;2022-09-09T05:49:16;3.70;;;3.40;;
15383;SDS011;7790;53.022;12.968;2022-09-09T05:53:18;3.47;;;3.17;;
15383;SDS011;7790;53.022;12.968;2022-09-09T05:57:19;3.37;;;3.07;;
15383;SDS011;7790;53.022;12.968;2022-09-09T06:01:25;3.50;;;3.20;;
15383;SDS011;7790;53.022;12.968;2022-09-09T06:05:31;3.40;;;3.20;;
15383;SDS011;7790;53.022;12.968;2022-09-09T06:09:33;2.70;;;2.50;;
15383;SDS011;7790;53.022;12.968;2022-09-09T06:13:35;2.70;;;2.50;;
15383;SDS011;7790;53.022;12.968;2022-09-09T06:17:37;2.63;;;2.43;;
15383;SDS011;7790;53.022;12.968;2022-09-09T06:21:41;2.77;;;2.57;;
15383;SDS011;7790;53.022;12.968;2022-09-09T06:25:44;3.00;;;2.70;;
15383;SDS011;7790;53.022;12.968;2022-09-09T06:29:45;3.10;;;2.80;;
15383;SDS011;7790;53.022;12.968;2022-09-09T06:33:47;3.87;;;2.80;;
15383;SDS011;7790;53.022;12.968;2022-09-09T06:37:50;3.30;;;2.60;;
15383;SDS011;7790;53.022;12.968;2022-09-09T06:41:53;3.10;;;2.77;;
15383;SDS011;7790;53.022;12.968;2022-09-09T06:46:15;2.70;;;2.50;;
15383;SDS011;7790;53.022;12.968;2022-09-09T06:50:20;3.37;;;2.60;;
15383;SDS011;7790;53.022;12.968;2022-09-09T06:54:23;2.67;;;2.47;;
15383;SDS011;7790;53.022;12.968;2022-09-09T06:58:25;2.90;;;2.70;;
15383;SDS011;7790;53.022;12.968;2022-09-09T07:02:29;2.70;;;2.50;;
15383;SDS011;7790;53.022;12.968;2022-09-09T07:06:30;3.27;;;2.70;;
15383;SDS011;7790;53.022;12.968;2022-09-09T07:10:35;2.73;;;2.50;;
15383;SDS011;7790;53.022;12.968;2022-09-09T07:14:36;2.93;;;2.70;;
15383;SDS011;7790;53.022;12.968;2022-09-09T07:18:40;4.83;;;2.50;;
15383;SDS011;7790;53.022;12.968;2022-09-09T07:22:42;2.67;;;2.30;;
15383;SDS011;7790;53.022;12.968;2022-09-09T07:26:44;2.50;;;2.30;;
15383;SDS011;7790;53.022;12.968;2022-09-09T07:30:56;2.60;;;2.40;;
15383;SDS011;7790;53.022;12.968;2022-09-09T07:35:00;2.53;;;2.33;;
15383;SDS011;7790;53.022;12.968;2022-09-09T07:39:03;4.07;;;2.10;;
15383;SDS011;7790;53.022;12.968;2022-09-09T07:43:07;2.50;;;2.30;;
15383;SDS011;7790;53.022;12.968;2022-09-09T07:47:09;2.10;;;2.00;;
15383;SDS011;7790;53.022;12.968;2022-09-09T07:51:26;2.47;;;2.07;;
15383;SDS011;7790;53.022;12.968;2022-09-09T07:55:29;3.33;;;2.30;;
15383;SDS011;7790;53.022;12.968;2022-09-09T07:59:30;3.53;;;2.40;;
15383;SDS011;7790;53.022;12.968;2022-09-09T08:03:32;5.27;;;2.63;;
15383;SDS011;7790;53.022;12.968;2022-09-09T08:07:33;4.77;;;2.50;;
15383;SDS011;7790;53.022;12.968;2022-09-09T08:11:35;4.87;;;2.33;;
15383;SDS011;7790;53.022;12.968;2022-09-09T08:15:37;2.83;;;2.60;;
15383;SDS011;7790;53.022;12.968;2022-09-09T08:19:38;3.33;;;2.30;;
15383;SDS011;7790;53.022;12.968;2022-09-09T08:23:45;2.43;;;2.23;;
15383;SDS011;7790;53.022;12.968;2022-09-09T08:27:48;2.87;;;2.67;;
15383;SDS011;7790;53.022;12.968;2022-09-09T08:31:50;2.47;;;2.20;;
15383;SDS011;7790;53.022;12.968;2022-09-09T08:35:54;3.87;;;2.17;;
15383;SDS011;7790;53.022;12.968;2022-09-09T08:39:57;3.60;;;2.43;;
15383;SDS011;7790;53.022;12.968;2022-09-09T08:44:01;2.60;;;2.20;;
15383;SDS011;7790;53.022;12.968;2022-09-09T08:52:21;2.60;;;2.17;;
15383;SDS011;7790;53.022;12.968;2022-09-09T08:56:28;5.43;;;2.17;;
15383;SDS011;7790;53.022;12.968;2022-09-09T09:00:36;2.57;;;2.00;;
15383;SDS011;7790;53.022;12.968;2022-09-09T09:17:52;4.50;;;2.23;;
15383;SDS011;7790;53.022;12.968;2022-09-09T09:26:06;2.73;;;1.63;;
15383;SDS011;7790;53.022;12.968;2022-09-09T09:30:18;4.87;;;2.30;;
15383;SDS011;7790;53.022;12.968;2022-09-09T09:34:21;4.13;;;1.70;;
15383;SDS011;7790;53.022;12.968;2022-09-09T09:38:24;4.57;;;2.10;;
15383;SDS011;7790;53.022;12.968;2022-09-09T09:42:30;7.00;;;1.90;;
15383;SDS011;7790;53.022;12.968;2022-09-09T09:46:32;3.60;;;1.80;;
15383;SDS011;7790;53.022;12.968;2022-09-09T09:50:50;6.53;;;2.37;;
15383;SDS011;7790;53.022;12.968;2022-09-09T09:54:53;6.17;;;2.10;;
15383;SDS011;7790;53.022;12.968;2022-09-09T09:58:56;3.43;;;2.00;;
15383;SDS011;7790;53.022;12.968;2022-09-09T10:03:12;6.60;;;1.80;;
15383;SDS011;7790;53.022;12.968;2022-09-09T10:07:30;3.77;;;1.80;;
15383;SDS011;7790;53.022;12.968;2022-09-09T10:11:41;5.30;;;1.90;;
15383;SDS011;7790;53.022;12.968;2022-09-09T10:29:08;4.23;;;1.60;;
15383;SDS011;7790;53.022;12.968;2022-09-09T10:33:21;2.67;;;2.20;;
15383;SDS011;7790;53.022;12.968;2022-09-09T10:41:55;4.47;;;2.27;;
15383;SDS011;7790;53.022;12.968;2022-09-09T10:54:53;2.07;;;1.57;;
15383;SDS011;7790;53.022;12.968;2022-09-09T10:59:00;2.87;;;1.90;;
15383;SDS011;7790;53.022;12.968;2022-09-09T11:03:03;5.27;;;1.80;;
15383;SDS011;7790;53.022;12.968;2022-09-09T11:07:09;4.30;;;2.00;;
15383;SDS011;7790;53.022;12.968;2022-09-09T11:11:18;2.77;;;2.17;;
15383;SDS011;7790;53.022;12.968;2022-09-09T11:15:41;2.40;;;2.20;;
15383;SDS011;7790;53.022;12.968;2022-09-09T11:19:45;3.33;;;2.00;;
15383;SDS011;7790;53.022;12.968;2022-09-09T11:23:49;4.23;;;2.10;;
15383;SDS011;7790;53.022;12.968;2022-09-09T11:28:11;3.67;;;2.20;;
15383;SDS011;7790;53.022;12.968;2022-09-09T11:41:33;4.27;;;2.27;;
15383;SDS011;7790;53.022;12.968;2022-09-09T11:45:37;6.83;;;2.00;;
15383;SDS011;7790;53.022;12.968;2022-09-09T11:57:58;2.50;;;1.77;;
15383;SDS011;7790;53.022;12.968;2022-09-09T12:02:01;3.43;;;2.10;;
15383;SDS011;7790;53.022;12.968;2022-09-09T12:06:16;3.97;;;2.10;;
15383;SDS011;7790;53.022;12.968;2022-09-09T12:10:33;4.43;;;2.00;;
15383;SDS011;7790;53.022;12.968;2022-09-09T12:14:37;6.30;;;2.00;;
15383;SDS011;7790;53.022;12.968;2022-09-09T12:18:46;6.83;;;2.30;;
15383;SDS011;7790;53.022;12.968;2022-09-09T12:27:27;7.30;;;2.27;;
15383;SDS011;7790;53.022;12.968;2022-09-09T12:35:40;6.93;;;2.40;;
15383;SDS011;7790;53.022;12.968;2022-09-09T12:39:56;7.43;;;2.73;;
15383;SDS011;7790;53.022;12.968;2022-09-09T12:44:06;7.07;;;2.40;;
15383;SDS011;7790;53.022;12.968;2022-09-09T12:48:12;2.97;;;1.77;;
15383;SDS011;7790;53.022;12.968;2022-09-09T12:52:21;4.97;;;1.93;;
15383;SDS011;7790;53.022;12.968;2022-09-09T12:56:34;4.13;;;1.70;;
15383;SDS011;7790;53.022;12.968;2022-09-09T13:00:36;4.13;;;1.73;;
15383;SDS011;7790;53.022;12.968;2022-09-09T13:04:37;4.07;;;2.03;;
15383;SDS011;7790;53.022;12.968;2022-09-09T13:08:38;3.83;;;2.10;;
15383;SDS011;7790;53.022;12.968;2022-09-09T13:12:39;5.47;;;1.80;;
15383;SDS011;7790;53.022;12.968;2022-09-09T13:16:42;4.77;;;1.87;;
15383;SDS011;7790;53.022;12.968;2022-09-09T13:20:46;4.03;;;1.73;;
15383;SDS011;7790;53.022;12.968;2022-09-09T13:24:57;2.07;;;1.70;;
15383;SDS011;7790;53.022;12.968;2022-09-09T13:29:13;2.77;;;1.60;;
15383;SDS011;7790;53.022;12.968;2022-09-09T13:33:20;3.87;;;1.60;;
15383;SDS011;7790;53.022;12.968;2022-09-09T13:37:44;4.00;;;1.60;;
15383;SDS011;7790;53.022;12.968;2022-09-09T13:41:44;5.10;;;1.90;;
15383;SDS011;7790;53.022;12.968;2022-09-09T13:45:55;2.57;;;1.70;;
15383;SDS011;7790;53.022;12.968;2022-09-09T13:49:58;2.87;;;1.67;;
15383;SDS011;7790;53.022;12.968;2022-09-09T13:54:19;2.67;;;1.90;;
15383;SDS011;7790;53.022;12.968;2022-09-09T13:58:21;3.03;;;1.67;;
15383;SDS011;7790;53.022;12.968;2022-09-09T14:02:23;3.63;;;1.70;;
15383;SDS011;7790;53.022;12.968;2022-09-09T14:06:24;2.63;;;1.70;;
15383;SDS011;7790;53.022;12.968;2022-09-09T14:10:25;3.70;;;1.43;;
15383;SDS011;7790;53.022;12.968;2022-09-09T14:14:28;4.93;;;1.50;;
15383;SDS011;7790;53.022;12.968;2022-09-09T14:18:29;2.90;;;1.50;;
15383;SDS011;7790;53.022;12.968;2022-09-09T14:22:30;3.80;;;1.70;;
15383;SDS011;7790;53.022;12.968;2022-09-09T14:26:31;4.30;;;2.10;;
15383;SDS011;7790;53.022;12.968;2022-09-09T14:30:32;8.40;;;1.77;;
15383;SDS011;7790;53.022;12.968;2022-09-09T14:34:33;6.53;;;2.07;;
15383;SDS011;7790;53.022;12.968;2022-09-09T14:38:35;9.17;;;2.60;;
15383;SDS011;7790;53.022;12.968;2022-09-09T14:42:41;5.87;;;1.63;;
15383;SDS011;7790;53.022;12.968;2022-09-09T14:46:42;12.53;;;2.43;;
15383;SDS011;7790;53.022;12.968;2022-09-09T14:50:43;8.80;;;2.37;;
15383;SDS011;7790;53.022;12.968;2022-09-09T14:54:44;12.77;;;2.10;;
15383;SDS011;7790;53.022;12.968;2022-09-09T14:58:45;5.97;;;1.53;;
15383;SDS011;7790;53.022;12.968;2022-09-09T15:02:46;7.13;;;2.30;;
15383;SDS011;7790;53.022;12.968;2022-09-09T15:06:47;6.97;;;2.10;;
15383;SDS011;7790;53.022;12.968;2022-09-09T15:10:50;7.07;;;2.10;;
15383;SDS011;7790;53.022;12.968;2022-09-09T15:14:54;7.30;;;1.80;;
15383;SDS011;7790;53.022;12.968;2022-09-09T15:18:56;6.80;;;1.60;;
15383;SDS011;7790;53.022;12.968;2022-09-09T15:22:58;5.67;;;1.90;;
15383;SDS011;7790;53.022;12.968;2022-09-09T15:26:59;8.27;;;1.80;;
15383;SDS011;7790;53.022;12.968;2022-09-09T15:31:00;4.10;;;1.53;;
15383;SDS011;7790;53.022;12.968;2022-09-09T15:35:07;4.20;;;1.73;;
15383;SDS011;7790;53.022;12.968;2022-09-09T15:39:11;4.53;;;1.50;;
15383;SDS011;7790;53.022;12.968;2022-09-09T15:43:15;4.80;;;1.87;;
15383;SDS011;7790;53.022;12.968;2022-09-09T15:47:16;4.00;;;1.67;;
15383;SDS011;7790;53.022;12.968;2022-09-09T15:51:18;5.27;;;1.60;;
15383;SDS011;7790;53.022;12.968;2022-09-09T15:55:19;3.50;;;1.77;;
15383;SDS011;7790;53.022;12.968;2022-09-09T15:59:25;5.03;;;1.50;;
15383;SDS011;7790;53.022;12.968;2022-09-09T16:03:28;3.43;;;1.60;;
15383;SDS011;7790;53.022;12.968;2022-09-09T16:07:30;2.57;;;1.27;;
15383;SDS011;7790;53.022;12.968;2022-09-09T16:11:32;3.50;;;1.60;;
15383;SDS011;7790;53.022;12.968;2022-09-09T16:15:35;5.70;;;1.40;;
15383;SDS011;7790;53.022;12.968;2022-09-09T16:19:36;8.80;;;1.80;;
15383;SDS011;7790;53.022;12.968;2022-09-09T16:23:37;7.17;;;1.50;;
15383;SDS011;7790;53.022;12.968;2022-09-09T16:27:39;3.47;;;1.60;;
15383;SDS011;7790;53.022;12.968;2022-09-09T16:31:40;6.70;;;1.80;;
15383;SDS011;7790;53.022;12.968;2022-09-09T16:35:41;4.10;;;1.60;;
15383;SDS011;7790;53.022;12.968;2022-09-09T16:39:42;4.03;;;1.50;;
15383;SDS011;7790;53.022;12.968;2022-09-09T16:43:43;3.97;;;1.60;;
15383;SDS011;7790;53.022;12.968;2022-09-09T16:47:44;3.93;;;1.43;;
15383;SDS011;7790;53.022;12.968;2022-09-09T16:51:46;8.83;;;3.40;;
15383;SDS011;7790;53.022;12.968;2022-09-09T16:55:48;18.67;;;9.20;;
15383;SDS011;7790;53.022;12.968;2022-09-09T16:59:49;31.40;;;17.90;;
15383;SDS011;7790;53.022;12.968;2022-09-09T17:03:58;52.87;;;30.83;;
15383;SDS011;7790;53.022;12.968;2022-09-09T17:08:01;134.63;;;80.40;;
15383;SDS011;7790;53.022;12.968;2022-09-09T17:12:02;143.13;;;91.00;;
15383;SDS011;7790;53.022;12.968;2022-09-09T17:16:03;180.37;;;109.97;;
15383;SDS011;7790;53.022;12.968;2022-09-09T17:20:05;176.77;;;112.43;;
15383;SDS011;7790;53.022;12.968;2022-09-09T17:24:10;208.87;;;144.70;;
15383;SDS011;7790;53.022;12.968;2022-09-09T17:28:11;219.57;;;149.87;;
15383;SDS011;7790;53.022;12.968;2022-09-09T17:32:12;232.87;;;160.60;;
15383;SDS011;7790;53.022;12.968;2022-09-09T17:36:14;215.83;;;159.67;;
15383;SDS011;7790;53.022;12.968;2022-09-09T17:40:18;209.33;;;153.70;;
15383;SDS011;7790;53.022;12.968;2022-09-09T17:44:20;201.70;;;150.43;;
15383;SDS011;7790;53.022;12.968;2022-09-09T17:48:21;187.63;;;143.87;;
15383;SDS011;7790;53.022;12.968;2022-09-09T17:52:22;178.47;;;140.20;;
15383;SDS011;7790;53.022;12.968;2022-09-09T17:56:23;178.13;;;137.77;;
15383;SDS011;7790;53.022;12.968;2022-09-09T18:00:25;166.97;;;134.83;;
15383;SDS011;7790;53.022;12.968;2022-09-09T18:04:26;152.80;;;124.40;;
15383;SDS011;7790;53.022;12.968;2022-09-09T18:08:27;150.80;;;114.87;;
15383;SDS011;7790;53.022;12.968;2022-09-09T18:12:28;133.73;;;109.43;;
15383;SDS011;7790;53.022;12.968;2022-09-09T18:16:31;131.00;;;103.63;;
15383;SDS011;7790;53.022;12.968;2022-09-09T18:20:35;121.63;;;97.23;;
15383;SDS011;7790;53.022;12.968;2022-09-09T18:24:36;111.97;;;93.00;;
15383;SDS011;7790;53.022;12.968;2022-09-09T18:28:38;104.53;;;84.07;;
15383;SDS011;7790;53.022;12.968;2022-09-09T18:32:40;92.93;;;74.07;;
15383;SDS011;7790;53.022;12.968;2022-09-09T18:36:44;75.57;;;63.47;;
15383;SDS011;7790;53.022;12.968;2022-09-09T18:40:47;71.63;;;59.00;;
15383;SDS011;7790;53.022;12.968;2022-09-09T18:44:47;64.97;;;53.97;;
15383;SDS011;7790;53.022;12.968;2022-09-09T18:48:48;61.77;;;50.33;;
15383;SDS011;7790;53.022;12.968;2022-09-09T18:52:50;56.57;;;46.60;;
15383;SDS011;7790;53.022;12.968;2022-09-09T18:56:51;58.03;;;47.03;;
15383;SDS011;7790;53.022;12.968;2022-09-09T19:00:52;50.87;;;42.63;;
15383;SDS011;7790;53.022;12.968;2022-09-09T19:04:53;48.67;;;39.13;;
15383;SDS011;7790;53.022;12.968;2022-09-09T19:08:55;41.47;;;33.30;;
15383;SDS011;7790;53.022;12.968;2022-09-09T19:13:00;41.03;;;33.73;;
15383;SDS011;7790;53.022;12.968;2022-09-09T19:17:01;39.20;;;31.47;;
15383;SDS011;7790;53.022;12.968;2022-09-09T19:21:17;36.03;;;29.73;;
15383;SDS011;7790;53.022;12.968;2022-09-09T19:25:22;29.63;;;24.50;;
15383;SDS011;7790;53.022;12.968;2022-09-09T19:29:24;30.23;;;24.17;;
15383;SDS011;7790;53.022;12.968;2022-09-09T19:33:26;26.17;;;20.40;;
15383;SDS011;7790;53.022;12.968;2022-09-09T19:37:27;31.37;;;23.80;;
15383;SDS011;7790;53.022;12.968;2022-09-09T19:41:28;29.33;;;23.90;;
15383;SDS011;7790;53.022;12.968;2022-09-09T19:45:30;27.87;;;22.60;;
15383;SDS011;7790;53.022;12.968;2022-09-09T19:49:31;28.60;;;23.40;;
15383;SDS011;7790;53.022;12.968;2022-09-09T19:53:37;30.10;;;22.07;;
15383;SDS011;7790;53.022;12.968;2022-09-09T19:57:39;26.63;;;21.17;;
15383;SDS011;7790;53.022;12.968;2022-09-09T20:01:41;29.40;;;19.50;;
15383;SDS011;7790;53.022;12.968;2022-09-09T20:05:43;23.77;;;19.60;;
15383;SDS011;7790;53.022;12.968;2022-09-09T20:09:44;26.07;;;18.83;;
15383;SDS011;7790;53.022;12.968;2022-09-09T20:13:46;23.30;;;17.70;;
15383;SDS011;7790;53.022;12.968;2022-09-09T20:17:49;20.07;;;16.43;;
15383;SDS011;7790;53.022;12.968;2022-09-09T20:21:50;17.97;;;15.23;;
15383;SDS011;7790;53.022;12.968;2022-09-09T20:25:51;17.03;;;14.40;;
15383;SDS011;7790;53.022;12.968;2022-09-09T20:29:52;16.23;;;12.87;;
15383;SDS011;7790;53.022;12.968;2022-09-09T20:33:53;21.07;;;13.40;;
15383;SDS011;7790;53.022;12.968;2022-09-09T20:37:55;15.50;;;11.77;;
15383;SDS011;7790;53.022;12.968;2022-09-09T20:41:56;14.13;;;11.53;;
15383;SDS011;7790;53.022;12.968;2022-09-09T20:46:00;13.03;;;10.73;;
15383;SDS011;7790;53.022;12.968;2022-09-09T20:50:01;15.63;;;10.77;;
15383;SDS011;7790;53.022;12.968;2022-09-09T20:54:07;13.07;;;10.20;;
15383;SDS011;7790;53.022;12.968;2022-09-09T20:58:15;9.23;;;8.27;;
15383;SDS011;7790;53.022;12.968;2022-09-09T21:02:16;10.40;;;7.97;;
15383;SDS011;7790;53.022;12.968;2022-09-09T21:06:19;10.07;;;8.23;;
15383;SDS011;7790;53.022;12.968;2022-09-09T21:10:20;9.37;;;8.03;;
15383;SDS011;7790;53.022;12.968;2022-09-09T21:14:21;8.00;;;6.93;;
15383;SDS011;7790;53.022;12.968;2022-09-09T21:18:22;8.17;;;6.83;;
15383;SDS011;7790;53.022;12.968;2022-09-09T21:22:23;6.77;;;6.07;;
15383;SDS011;7790;53.022;12.968;2022-09-09T21:26:24;6.43;;;5.83;;
15383;SDS011;7790;53.022;12.968;2022-09-09T21:30:25;7.50;;;5.97;;
15383;SDS011;7790;53.022;12.968;2022-09-09T21:34:28;6.53;;;5.70;;
15383;SDS011;7790;53.022;12.968;2022-09-09T21:38:29;7.23;;;5.27;;
15383;SDS011;7790;53.022;12.968;2022-09-09T21:42:30;5.47;;;4.70;;
15383;SDS011;7790;53.022;12.968;2022-09-09T21:46:31;4.97;;;4.47;;
15383;SDS011;7790;53.022;12.968;2022-09-09T21:50:39;4.50;;;4.10;;
15383;SDS011;7790;53.022;12.968;2022-09-09T21:54:44;4.50;;;4.03;;
15383;SDS011;7790;53.022;12.968;2022-09-09T21:58:45;5.80;;;4.37;;
15383;SDS011;7790;53.022;12.968;2022-09-09T22:02:46;7.33;;;4.43;;
15383;SDS011;7790;53.022;12.968;2022-09-09T22:06:47;4.40;;;3.93;;
15383;SDS011;7790;53.022;12.968;2022-09-09T22:10:48;5.10;;;3.80;;
15383;SDS011;7790;53.022;12.968;2022-09-09T22:14:48;4.27;;;3.10;;
15383;SDS011;7790;53.022;12.968;2022-09-09T22:18:54;4.23;;;3.80;;
15383;SDS011;7790;53.022;12.968;2022-09-09T22:22:56;3.43;;;3.07;;
15383;SDS011;7790;53.022;12.968;2022-09-09T22:26:57;4.00;;;3.43;;
15383;SDS011;7790;53.022;12.968;2022-09-09T22:30:58;3.27;;;2.97;;
15383;SDS011;7790;53.022;12.968;2022-09-09T22:34:59;3.40;;;2.97;;
15383;SDS011;7790;53.022;12.968;2022-09-09T22:39:00;3.40;;;3.10;;
15383;SDS011;7790;53.022;12.968;2022-09-09T22:43:01;3.37;;;2.70;;
15383;SDS011;7790;53.022;12.968;2022-09-09T22:47:02;3.07;;;2.43;;
15383;SDS011;7790;53.022;12.968;2022-09-09T22:51:03;3.13;;;2.80;;
15383;SDS011;7790;53.022;12.968;2022-09-09T22:55:06;2.03;;;1.90;;
15383;SDS011;7790;53.022;12.968;2022-09-09T22:59:09;3.77;;;2.40;;
15383;SDS011;7790;53.022;12.968;2022-09-09T23:03:10;3.23;;;2.80;;
15383;SDS011;7790;53.022;12.968;2022-09-09T23:07:11;2.53;;;2.17;;
15383;SDS011;7790;53.022;12.968;2022-09-09T23:11:14;2.30;;;2.10;;
15383;SDS011;7790;53.022;12.968;2022-09-09T23:15:16;4.03;;;2.63;;
15383;SDS011;7790;53.022;12.968;2022-09-09T23:19:17;3.27;;;2.40;;
15383;SDS011;7790;53.022;12.968;2022-09-09T23:23:20;2.57;;;2.03;;
15383;SDS011;7790;53.022;12.968;2022-09-09T23:27:25;4.00;;;2.10;;
15383;SDS011;7790;53.022;12.968;2022-09-09T23:31:26;1.97;;;1.87;;
15383;SDS011;7790;53.022;12.968;2022-09-09T23:35:29;2.40;;;2.10;;
15383;SDS011;7790;53.022;12.968;2022-09-09T23:39:32;3.83;;;1.70;;
15383;SDS011;7790;53.022;12.968;2022-09-09T23:43:33;2.30;;;2.00;;
15383;SDS011;7790;53.022;12.968;2022-09-09T23:47:38;2.70;;;2.00;;
15383;SDS011;7790;53.022;12.968;2022-09-09T23:51:39;2.40;;;2.00;;
15383;SDS011;7790;53.022;12.968;2022-09-09T23:55:40;2.10;;;1.90;;
15383;SDS011;7790;53.022;12.968;2022-09-09T23:59:42;4.17;;;1.93;;
